sensor_id;sensor_type;location;lat;lon;timestamp;pressure;altitude;pressure_sealevel;temperature;humidity
28911;BME280;16028;42.642;23.310;2023-01-26T00:02:10;94449.03;;;0.93;89.79
28911;BME280;16028;42.642;23.310;2023-01-26T00:04:36;94445.66;;;0.92;90.29
28911;BME280;16028;42.642;23.310;2023-01-26T00:07:03;94441.19;;;0.96;90.83
28911;BME280;16028;42.642;23.310;2023-01-26T00:09:29;94436.91;;;0.96;90.05
28911;BME280;16028;42.642;23.310;2023-01-26T00:11:57;94438.63;;;0.96;90.95
28911;BME280;16028;42.642;23.310;2023-01-26T00:14:24;94448.22;;;0.92;90.07
28911;BME280;16028;42.642;23.310;2023-01-26T00:16:50;94445.66;;;0.92;90.14
28911;BME280;16028;42.642;23.310;2023-01-26T00:19:18;94448.97;;;0.94;90.28
28911;BME280;16028;42.642;23.310;2023-01-26T00:21:45;94451.53;;;0.94;90.09
28911;BME280;16028;42.642;23.310;2023-01-26T00:24:11;94447.22;;;0.95;89.51
28911;BME280;16028;42.642;23.310;2023-01-26T00:26:38;94447.13;;;0.96;90.48
28911;BME280;16028;42.642;23.310;2023-01-26T00:29:05;94437.00;;;0.95;89.37
28911;BME280;16028;42.642;23.310;2023-01-26T00:31:32;94431.34;;;0.88;89.81
28911;BME280;16028;42.642;23.310;2023-01-26T00:33:58;94425.19;;;0.92;89.68
28911;BME280;16028;42.642;23.310;2023-01-26T00:36:25;94412.38;;;0.92;89.23
28911;BME280;16028;42.642;23.310;2023-01-26T00:38:52;94421.69;;;0.93;89.21
28911;BME280;16028;42.642;23.310;2023-01-26T00:41:18;94418.47;;;0.90;89.81
28911;BME280;16028;42.642;23.310;2023-01-26T00:44:02;94416.22;;;0.84;89.63
28911;BME280;16028;42.642;23.310;2023-01-26T00:46:30;94410.28;;;0.83;89.51
28911;BME280;16028;42.642;23.310;2023-01-26T00:48:57;94413.59;;;0.85;89.49
28911;BME280;16028;42.642;23.310;2023-01-26T00:51:24;94419.56;;;0.86;89.93
28911;BME280;16028;42.642;23.310;2023-01-26T00:53:51;94415.22;;;0.86;89.28
28911;BME280;16028;42.642;23.310;2023-01-26T00:56:17;94404.19;;;0.86;89.41
28911;BME280;16028;42.642;23.310;2023-01-26T00:58:44;94403.59;;;0.81;89.08
28911;BME280;16028;42.642;23.310;2023-01-26T01:01:10;94399.53;;;0.77;89.82
28911;BME280;16028;42.642;23.310;2023-01-26T01:03:38;94394.41;;;0.77;88.90
28911;BME280;16028;42.642;23.310;2023-01-26T01:06:05;94393.69;;;0.75;88.95
28911;BME280;16028;42.642;23.310;2023-01-26T01:08:31;94397.06;;;0.75;88.58
28911;BME280;16028;42.642;23.310;2023-01-26T01:11:04;94396.97;;;0.77;89.06
28911;BME280;16028;42.642;23.310;2023-01-26T01:13:31;94399.47;;;0.78;89.00
28911;BME280;16028;42.642;23.310;2023-01-26T01:15:58;94396.91;;;0.78;89.19
28911;BME280;16028;42.642;23.310;2023-01-26T01:18:24;94395.34;;;0.76;88.92
28911;BME280;16028;42.642;23.310;2023-01-26T01:20:52;94378.09;;;0.79;88.95
28911;BME280;16028;42.642;23.310;2023-01-26T01:23:19;94387.50;;;0.79;88.89
28911;BME280;16028;42.642;23.310;2023-01-26T01:25:45;94376.91;;;0.69;87.89
28911;BME280;16028;42.642;23.310;2023-01-26T01:28:12;94377.75;;;0.70;88.23
28911;BME280;16028;42.642;23.310;2023-01-26T01:30:38;94376.75;;;0.72;88.58
28911;BME280;16028;42.642;23.310;2023-01-26T01:33:05;94374.25;;;0.71;88.32
28911;BME280;16028;42.642;23.310;2023-01-26T01:35:31;94383.03;;;0.67;88.77
28911;BME280;16028;42.642;23.310;2023-01-26T01:38:01;94376.66;;;0.74;88.74
28911;BME280;16028;42.642;23.310;2023-01-26T01:40:28;94369.81;;;0.74;88.71
28911;BME280;16028;42.642;23.310;2023-01-26T01:42:54;94368.91;;;0.75;87.79
28911;BME280;16028;42.642;23.310;2023-01-26T01:45:36;94367.19;;;0.76;87.91
28911;BME280;16028;42.642;23.310;2023-01-26T01:48:05;94374.34;;;0.69;87.69
28911;BME280;16028;42.642;23.310;2023-01-26T01:50:35;94372.03;;;0.65;87.55
28911;BME280;16028;42.642;23.310;2023-01-26T01:53:04;94377.75;;;0.70;87.24
28911;BME280;16028;42.642;23.310;2023-01-26T01:55:31;94365.44;;;0.61;87.28
28911;BME280;16028;42.642;23.310;2023-01-26T01:57:58;94363.31;;;0.51;88.24
28911;BME280;16028;42.642;23.310;2023-01-26T02:00:26;94372.44;;;0.57;89.17
28911;BME280;16028;42.642;23.310;2023-01-26T02:02:53;94363.00;;;0.58;88.78
28911;BME280;16028;42.642;23.310;2023-01-26T02:16:12;94331.66;;;0.54;87.76
28911;BME280;16028;42.642;23.310;2023-01-26T02:18:38;94335.28;;;0.50;87.58
28911;BME280;16028;42.642;23.310;2023-01-26T02:21:05;94334.44;;;0.49;88.35
28911;BME280;16028;42.642;23.310;2023-01-26T02:23:39;94313.81;;;0.52;88.88
28911;BME280;16028;42.642;23.310;2023-01-26T02:26:12;94316.22;;;0.56;88.08
28911;BME280;16028;42.642;23.310;2023-01-26T02:28:40;94310.19;;;0.57;87.68
28911;BME280;16028;42.642;23.310;2023-01-26T02:31:07;94312.81;;;0.55;88.43
28911;BME280;16028;42.642;23.310;2023-01-26T02:33:34;94315.38;;;0.55;88.21
28911;BME280;16028;42.642;23.310;2023-01-26T02:36:01;94319.44;;;0.59;88.38
28911;BME280;16028;42.642;23.310;2023-01-26T02:38:29;94312.59;;;0.60;87.72
28911;BME280;16028;42.642;23.310;2023-01-26T02:40:57;94303.91;;;0.62;88.01
28911;BME280;16028;42.642;23.310;2023-01-26T02:43:26;94303.34;;;0.57;87.41
28911;BME280;16028;42.642;23.310;2023-01-26T02:45:52;94306.97;;;0.53;88.19
28911;BME280;16028;42.642;23.310;2023-01-26T02:48:19;94301.91;;;0.51;87.76
28911;BME280;16028;42.642;23.310;2023-01-26T02:50:59;94298.41;;;0.54;87.51
28911;BME280;16028;42.642;23.310;2023-01-26T02:53:26;94288.72;;;0.43;88.25
28911;BME280;16028;42.642;23.310;2023-01-26T02:55:52;94288.00;;;0.41;88.15
28911;BME280;16028;42.642;23.310;2023-01-26T02:58:18;94287.81;;;0.44;88.04
28911;BME280;16028;42.642;23.310;2023-01-26T03:00:45;94272.97;;;0.51;88.08
28911;BME280;16028;42.642;23.310;2023-01-26T03:03:13;94279.97;;;0.47;87.41
28911;BME280;16028;42.642;23.310;2023-01-26T03:05:40;94285.16;;;0.46;87.68
28911;BME280;16028;42.642;23.310;2023-01-26T03:08:06;94283.59;;;0.43;87.57
28911;BME280;16028;42.642;23.310;2023-01-26T03:10:33;94285.16;;;0.46;87.76
28911;BME280;16028;42.642;23.310;2023-01-26T03:13:00;94265.53;;;0.46;87.83
28911;BME280;16028;42.642;23.310;2023-01-26T03:15:26;94272.53;;;0.43;87.39
28911;BME280;16028;42.642;23.310;2023-01-26T03:18:17;94259.84;;;0.41;87.69
28911;BME280;16028;42.642;23.310;2023-01-26T03:21:02;94255.53;;;0.42;87.47
28911;BME280;16028;42.642;23.310;2023-01-26T03:23:46;94247.28;;;0.37;87.92
28911;BME280;16028;42.642;23.310;2023-01-26T03:26:30;94253.72;;;0.44;88.10
28911;BME280;16028;42.642;23.310;2023-01-26T03:29:14;94244.41;;;0.43;87.48
28911;BME280;16028;42.642;23.310;2023-01-26T03:31:41;94247.78;;;0.43;87.50
28911;BME280;16028;42.642;23.310;2023-01-26T03:34:09;94241.84;;;0.43;87.65
28911;BME280;16028;42.642;23.310;2023-01-26T03:36:36;94238.38;;;0.44;88.04
28911;BME280;16028;42.642;23.310;2023-01-26T03:39:02;94244.63;;;0.38;87.40
28911;BME280;16028;42.642;23.310;2023-01-26T03:41:29;94237.88;;;0.37;87.83
28911;BME280;16028;42.642;23.310;2023-01-26T03:44:13;94239.22;;;0.44;87.63
28911;BME280;16028;42.642;23.310;2023-01-26T03:46:57;94248.94;;;0.38;87.82
28911;BME280;16028;42.642;23.310;2023-01-26T03:49:42;94238.56;;;0.41;87.39
28911;BME280;16028;42.642;23.310;2023-01-26T03:52:26;94235.22;;;0.39;86.83
28911;BME280;16028;42.642;23.310;2023-01-26T03:55:10;94232.66;;;0.39;87.08
28911;BME280;16028;42.642;23.310;2023-01-26T03:57:54;94235.06;;;0.42;87.04
28911;BME280;16028;42.642;23.310;2023-01-26T04:00:21;94219.53;;;0.45;87.11
28911;BME280;16028;42.642;23.310;2023-01-26T04:02:47;94231.03;;;0.38;86.23
28911;BME280;16028;42.642;23.310;2023-01-26T04:05:32;94229.94;;;0.42;87.43
28911;BME280;16028;42.642;23.310;2023-01-26T04:08:16;94224.75;;;0.43;86.65
28911;BME280;16028;42.642;23.310;2023-01-26T04:10:46;94221.31;;;0.44;86.90
28911;BME280;16028;42.642;23.310;2023-01-26T04:13:15;94208.69;;;0.41;86.93
28911;BME280;16028;42.642;23.310;2023-01-26T04:15:58;94208.50;;;0.29;86.75
28911;BME280;16028;42.642;23.310;2023-01-26T04:18:43;94208.59;;;0.27;86.98
28911;BME280;16028;42.642;23.310;2023-01-26T04:21:28;94196.69;;;0.26;87.21
28911;BME280;16028;42.642;23.310;2023-01-26T04:23:57;94181.84;;;0.33;87.41
28911;BME280;16028;42.642;23.310;2023-01-26T04:26:24;94184.75;;;0.27;87.17
28911;BME280;16028;42.642;23.310;2023-01-26T04:28:51;94180.47;;;0.27;87.53
28911;BME280;16028;42.642;23.310;2023-01-26T04:31:18;94181.94;;;0.31;87.40
28911;BME280;16028;42.642;23.310;2023-01-26T04:33:44;94178.63;;;0.29;86.71
28911;BME280;16028;42.642;23.310;2023-01-26T04:36:11;94173.03;;;0.23;86.27
28911;BME280;16028;42.642;23.310;2023-01-26T04:38:38;94172.06;;;0.25;86.66
28911;BME280;16028;42.642;23.310;2023-01-26T04:41:05;94181.19;;;0.29;86.30
28911;BME280;16028;42.642;23.310;2023-01-26T04:43:31;94172.84;;;0.26;86.64
28911;BME280;16028;42.642;23.310;2023-01-26T04:45:58;94182.84;;;0.30;86.54
28911;BME280;16028;42.642;23.310;2023-01-26T04:48:25;94178.63;;;0.29;85.15
28911;BME280;16028;42.642;23.310;2023-01-26T04:50:52;94170.88;;;0.31;85.23
28911;BME280;16028;42.642;23.310;2023-01-26T04:53:19;94187.22;;;0.28;85.08
28911;BME280;16028;42.642;23.310;2023-01-26T04:55:47;94187.91;;;0.32;84.99
28911;BME280;16028;42.642;23.310;2023-01-26T04:58:13;94187.72;;;0.35;86.46
28911;BME280;16028;42.642;23.310;2023-01-26T05:00:40;94191.41;;;0.45;85.27
28911;BME280;16028;42.642;23.310;2023-01-26T05:03:06;94189.94;;;0.41;84.42
28911;BME280;16028;42.642;23.310;2023-01-26T05:05:34;94197.63;;;0.41;84.93
28911;BME280;16028;42.642;23.310;2023-01-26T05:08:01;94192.16;;;0.47;84.93
28911;BME280;16028;42.642;23.310;2023-01-26T05:10:27;94190.50;;;0.46;84.19
28911;BME280;16028;42.642;23.310;2023-01-26T05:12:55;94177.56;;;0.49;84.59
28911;BME280;16028;42.642;23.310;2023-01-26T05:15:22;94182.59;;;0.50;84.12
28911;BME280;16028;42.642;23.310;2023-01-26T05:17:48;94185.88;;;0.52;83.98
28911;BME280;16028;42.642;23.310;2023-01-26T05:20:15;94179.75;;;0.55;83.90
28911;BME280;16028;42.642;23.310;2023-01-26T05:22:41;94175.59;;;0.54;84.80
28911;BME280;16028;42.642;23.310;2023-01-26T05:25:08;94182.44;;;0.53;84.00
28911;BME280;16028;42.642;23.310;2023-01-26T05:27:35;94171.25;;;0.54;83.97
28911;BME280;16028;42.642;23.310;2023-01-26T05:30:03;94178.69;;;0.59;83.58
28911;BME280;16028;42.642;23.310;2023-01-26T05:32:29;94171.19;;;0.56;83.87
28911;BME280;16028;42.642;23.310;2023-01-26T05:34:56;94175.25;;;0.60;83.32
28911;BME280;16028;42.642;23.310;2023-01-26T05:37:23;94173.50;;;0.61;83.25
28911;BME280;16028;42.642;23.310;2023-01-26T05:39:50;94170.19;;;0.59;83.45
28911;BME280;16028;42.642;23.310;2023-01-26T05:42:16;94172.69;;;0.60;83.16
28911;BME280;16028;42.642;23.310;2023-01-26T05:44:43;94168.22;;;0.64;83.64
28911;BME280;16028;42.642;23.310;2023-01-26T05:47:11;94177.81;;;0.60;84.01
28911;BME280;16028;42.642;23.310;2023-01-26T05:49:38;94171.50;;;0.66;83.24
28911;BME280;16028;42.642;23.310;2023-01-26T05:52:07;94166.03;;;0.72;82.96
28911;BME280;16028;42.642;23.310;2023-01-26T05:54:33;94178.78;;;0.73;82.88
28911;BME280;16028;42.642;23.310;2023-01-26T05:57:00;94176.94;;;0.75;83.14
28911;BME280;16028;42.642;23.310;2023-01-26T05:59:26;94174.22;;;0.78;82.70
28911;BME280;16028;42.642;23.310;2023-01-26T06:01:53;94176.22;;;0.73;82.81
28911;BME280;16028;42.642;23.310;2023-01-26T06:04:22;94180.41;;;0.74;82.69
28911;BME280;16028;42.642;23.310;2023-01-26T06:06:48;94170.66;;;0.81;82.05
28911;BME280;16028;42.642;23.310;2023-01-26T06:09:17;94173.66;;;0.73;82.63
28911;BME280;16028;42.642;23.310;2023-01-26T06:11:43;94170.91;;;0.76;83.06
28911;BME280;16028;42.642;23.310;2023-01-26T06:14:10;94168.75;;;0.84;82.93
28911;BME280;16028;42.642;23.310;2023-01-26T06:16:36;94168.19;;;0.79;82.78
28911;BME280;16028;42.642;23.310;2023-01-26T06:19:03;94172.19;;;0.83;83.23
28911;BME280;16028;42.642;23.310;2023-01-26T06:21:31;94161.34;;;0.80;83.16
28911;BME280;16028;42.642;23.310;2023-01-26T06:23:58;94165.09;;;0.88;83.00
28911;BME280;16028;42.642;23.310;2023-01-26T06:26:24;94162.91;;;0.82;82.60
28911;BME280;16028;42.642;23.310;2023-01-26T06:28:51;94158.69;;;0.81;82.90
28911;BME280;16028;42.642;23.310;2023-01-26T06:31:18;94157.78;;;0.82;83.23
28911;BME280;16028;42.642;23.310;2023-01-26T06:33:45;94150.75;;;0.86;83.23
28911;BME280;16028;42.642;23.310;2023-01-26T06:36:12;94150.75;;;0.86;82.64
28911;BME280;16028;42.642;23.310;2023-01-26T06:38:43;94149.81;;;0.87;83.28
28911;BME280;16028;42.642;23.310;2023-01-26T06:41:10;94142.13;;;0.87;83.18
28911;BME280;16028;42.642;23.310;2023-01-26T06:43:37;94145.19;;;0.93;83.26
28911;BME280;16028;42.642;23.310;2023-01-26T06:46:04;94155.59;;;0.90;83.54
28911;BME280;16028;42.642;23.310;2023-01-26T06:48:32;94148.66;;;0.92;83.23
28911;BME280;16028;42.642;23.310;2023-01-26T06:51:02;94152.69;;;0.96;83.81
28911;BME280;16028;42.642;23.310;2023-01-26T06:53:32;94155.81;;;1.01;84.15
28911;BME280;16028;42.642;23.310;2023-01-26T06:56:00;94138.72;;;1.02;84.19
28911;BME280;16028;42.642;23.310;2023-01-26T06:58:26;94138.72;;;1.02;83.57
28911;BME280;16028;42.642;23.310;2023-01-26T07:00:53;94134.50;;;1.01;83.50
28911;BME280;16028;42.642;23.310;2023-01-26T07:03:20;94130.47;;;0.97;83.12
28911;BME280;16028;42.642;23.310;2023-01-26T07:05:46;94138.25;;;0.95;83.91
28911;BME280;16028;42.642;23.310;2023-01-26T07:08:13;94135.59;;;0.97;83.00
28911;BME280;16028;42.642;23.310;2023-01-26T07:10:39;94120.69;;;1.03;83.58
28911;BME280;16028;42.642;23.310;2023-01-26T07:13:07;94129.09;;;1.05;82.86
28911;BME280;16028;42.642;23.310;2023-01-26T07:15:33;94123.25;;;1.03;82.87
28911;BME280;16028;42.642;23.310;2023-01-26T07:18:00;94122.34;;;1.04;83.08
28911;BME280;16028;42.642;23.310;2023-01-26T07:20:27;94119.16;;;1.15;83.10
28911;BME280;16028;42.642;23.310;2023-01-26T07:22:53;94112.13;;;1.19;83.36
28911;BME280;16028;42.642;23.310;2023-01-26T07:25:20;94117.88;;;1.22;82.52
28911;BME280;16028;42.642;23.310;2023-01-26T07:27:46;94113.69;;;1.21;82.08
28911;BME280;16028;42.642;23.310;2023-01-26T07:30:14;94109.19;;;1.25;81.95
28911;BME280;16028;42.642;23.310;2023-01-26T07:32:41;94109.94;;;1.27;82.31
28911;BME280;16028;42.642;23.310;2023-01-26T07:35:08;94108.84;;;1.31;81.87
28911;BME280;16028;42.642;23.310;2023-01-26T07:37:34;94111.06;;;1.37;82.67
28911;BME280;16028;42.642;23.310;2023-01-26T07:40:01;94097.50;;;1.35;81.69
28911;BME280;16028;42.642;23.310;2023-01-26T07:42:30;94094.66;;;1.39;81.40
28911;BME280;16028;42.642;23.310;2023-01-26T07:44:56;94101.44;;;1.40;80.76
28911;BME280;16028;42.642;23.310;2023-01-26T07:47:25;94093.84;;;1.39;80.93
28911;BME280;16028;42.642;23.310;2023-01-26T07:49:51;94096.31;;;1.40;81.37
28911;BME280;16028;42.642;23.310;2023-01-26T07:52:18;94097.69;;;1.46;81.61
28911;BME280;16028;42.642;23.310;2023-01-26T07:54:44;94099.31;;;1.47;80.41
28911;BME280;16028;42.642;23.310;2023-01-26T07:57:11;94104.63;;;1.44;81.21
28911;BME280;16028;42.642;23.310;2023-01-26T07:59:37;94105.19;;;1.49;81.78
28911;BME280;16028;42.642;23.310;2023-01-26T08:02:04;94106.94;;;1.48;81.69
28911;BME280;16028;42.642;23.310;2023-01-26T08:04:31;94104.56;;;1.45;80.78
28911;BME280;16028;42.642;23.310;2023-01-26T08:06:58;94102.00;;;1.45;79.78
28911;BME280;16028;42.642;23.310;2023-01-26T08:09:24;94096.69;;;1.48;81.14
28911;BME280;16028;42.642;23.310;2023-01-26T08:11:51;94096.59;;;1.50;80.22
28911;BME280;16028;42.642;23.310;2023-01-26T08:14:17;94085.53;;;1.49;79.95
28911;BME280;16028;42.642;23.310;2023-01-26T08:16:44;94090.72;;;1.48;80.68
28911;BME280;16028;42.642;23.310;2023-01-26T08:19:10;94088.16;;;1.48;80.52
28911;BME280;16028;42.642;23.310;2023-01-26T08:21:38;94087.72;;;1.55;80.28
28911;BME280;16028;42.642;23.310;2023-01-26T08:24:05;94089.19;;;1.59;80.86
28911;BME280;16028;42.642;23.310;2023-01-26T08:26:32;94092.09;;;1.53;81.09
28911;BME280;16028;42.642;23.310;2023-01-26T08:28:58;94083.69;;;1.66;81.29
28911;BME280;16028;42.642;23.310;2023-01-26T08:31:25;94074.41;;;1.63;81.14
28911;BME280;16028;42.642;23.310;2023-01-26T08:33:52;94085.59;;;1.62;80.42
28911;BME280;16028;42.642;23.310;2023-01-26T08:36:19;94068.69;;;1.59;81.08
28911;BME280;16028;42.642;23.310;2023-01-26T08:38:47;94069.66;;;1.57;81.50
28911;BME280;16028;42.642;23.310;2023-01-26T08:41:14;94072.78;;;1.62;81.79
28911;BME280;16028;42.642;23.310;2023-01-26T08:43:40;94063.25;;;1.64;81.81
28911;BME280;16028;42.642;23.310;2023-01-26T08:46:06;94068.00;;;1.70;81.32
28911;BME280;16028;42.642;23.310;2023-01-26T08:48:33;94064.81;;;1.67;81.29
28911;BME280;16028;42.642;23.310;2023-01-26T08:51:00;94067.09;;;1.71;81.61
28911;BME280;16028;42.642;23.310;2023-01-26T08:53:28;94078.38;;;1.69;80.86
28911;BME280;16028;42.642;23.310;2023-01-26T08:55:59;94075.50;;;1.73;80.89
28911;BME280;16028;42.642;23.310;2023-01-26T08:58:26;94074.59;;;1.74;80.83
28911;BME280;16028;42.642;23.310;2023-01-26T09:00:53;94069.56;;;1.73;80.81
28911;BME280;16028;42.642;23.310;2023-01-26T09:03:19;94074.50;;;1.76;79.72
28911;BME280;16028;42.642;23.310;2023-01-26T09:05:46;94069.19;;;1.79;80.22
28911;BME280;16028;42.642;23.310;2023-01-26T09:08:13;94069.09;;;1.80;80.75
28911;BME280;16028;42.642;23.310;2023-01-26T09:10:39;94069.81;;;1.82;80.63
28911;BME280;16028;42.642;23.310;2023-01-26T09:13:08;94073.94;;;1.85;80.85
28911;BME280;16028;42.642;23.310;2023-01-26T09:15:36;94068.63;;;1.88;80.04
28911;BME280;16028;42.642;23.310;2023-01-26T09:18:02;94066.06;;;1.88;79.83
28911;BME280;16028;42.642;23.310;2023-01-26T09:20:29;94061.94;;;1.85;80.30
28911;BME280;16028;42.642;23.310;2023-01-26T09:22:56;94052.56;;;1.98;79.14
28911;BME280;16028;42.642;23.310;2023-01-26T09:25:22;94051.22;;;1.93;79.77
28911;BME280;16028;42.642;23.310;2023-01-26T09:27:49;94053.50;;;1.97;79.88
28911;BME280;16028;42.642;23.310;2023-01-26T09:30:17;94046.72;;;1.96;80.03
28911;BME280;16028;42.642;23.310;2023-01-26T09:32:43;94037.91;;;2.00;79.75
28911;BME280;16028;42.642;23.310;2023-01-26T09:35:10;94035.25;;;2.02;78.90
28911;BME280;16028;42.642;23.310;2023-01-26T09:37:44;94033.69;;;1.99;79.88
28911;BME280;16028;42.642;23.310;2023-01-26T09:40:14;94026.19;;;1.96;80.19
28911;BME280;16028;42.642;23.310;2023-01-26T09:42:43;94034.53;;;2.00;79.58
28911;BME280;16028;42.642;23.310;2023-01-26T09:45:21;94046.53;;;1.99;80.19
28911;BME280;16028;42.642;23.310;2023-01-26T09:47:53;94039.34;;;2.04;80.31
28911;BME280;16028;42.642;23.310;2023-01-26T09:50:24;94034.97;;;2.06;80.17
28911;BME280;16028;42.642;23.310;2023-01-26T09:52:53;94021.69;;;2.00;80.15
28911;BME280;16028;42.642;23.310;2023-01-26T09:55:21;94013.63;;;2.06;79.95
28911;BME280;16028;42.642;23.310;2023-01-26T09:57:49;94012.78;;;2.05;80.17
28911;BME280;16028;42.642;23.310;2023-01-26T10:00:17;94018.47;;;2.10;80.01
28911;BME280;16028;42.642;23.310;2023-01-26T10:02:50;94020.28;;;2.08;79.46
28911;BME280;16028;42.642;23.310;2023-01-26T10:05:21;94015.31;;;2.20;80.08
28911;BME280;16028;42.642;23.310;2023-01-26T10:07:50;94014.91;;;2.26;79.02
28911;BME280;16028;42.642;23.310;2023-01-26T10:10:17;94002.47;;;2.20;78.82
28911;BME280;16028;42.642;23.310;2023-01-26T10:12:45;94011.72;;;2.22;78.79
28911;BME280;16028;42.642;23.310;2023-01-26T10:15:16;94003.00;;;2.25;78.71
28911;BME280;16028;42.642;23.310;2023-01-26T10:17:44;93984.00;;;2.27;79.46
28911;BME280;16028;42.642;23.310;2023-01-26T10:20:17;93977.25;;;2.26;79.37
28911;BME280;16028;42.642;23.310;2023-01-26T10:22:50;93981.34;;;2.16;79.37
28911;BME280;16028;42.642;23.310;2023-01-26T10:25:18;93956.50;;;2.17;79.89
28911;BME280;16028;42.642;23.310;2023-01-26T10:27:45;93949.53;;;2.19;80.04
28911;BME280;16028;42.642;23.310;2023-01-26T10:30:12;93948.50;;;2.21;80.43
28911;BME280;16028;42.642;23.310;2023-01-26T10:32:40;93937.31;;;2.22;79.29
28911;BME280;16028;42.642;23.310;2023-01-26T10:35:07;93936.91;;;2.28;78.03
28911;BME280;16028;42.642;23.310;2023-01-26T10:37:40;93924.38;;;2.24;78.60
28911;BME280;16028;42.642;23.310;2023-01-26T10:40:07;93928.19;;;2.18;78.83
28911;BME280;16028;42.642;23.310;2023-01-26T10:42:35;93913.81;;;2.16;79.17
28911;BME280;16028;42.642;23.310;2023-01-26T10:45:04;93905.09;;;2.18;79.33
28911;BME280;16028;42.642;23.310;2023-01-26T10:47:32;93895.66;;;2.19;79.28
28911;BME280;16028;42.642;23.310;2023-01-26T10:50:12;93897.50;;;2.17;78.91
28911;BME280;16028;42.642;23.310;2023-01-26T10:52:40;93883.03;;;2.16;78.94
28911;BME280;16028;42.642;23.310;2023-01-26T10:55:21;93885.59;;;2.16;78.30
28911;BME280;16028;42.642;23.310;2023-01-26T10:57:48;93878.41;;;2.21;78.36
28911;BME280;16028;42.642;23.310;2023-01-26T11:00:19;93876.56;;;2.23;78.39
28911;BME280;16028;42.642;23.310;2023-01-26T11:02:48;93875.97;;;2.32;79.07
28911;BME280;16028;42.642;23.310;2023-01-26T11:05:18;93868.16;;;2.33;77.99
28911;BME280;16028;42.642;23.310;2023-01-26T11:07:46;93858.41;;;2.38;77.82
28911;BME280;16028;42.642;23.310;2023-01-26T11:10:20;93858.09;;;2.43;77.04
28911;BME280;16028;42.642;23.310;2023-01-26T11:12:47;93850.19;;;2.46;77.96
28911;BME280;16028;42.642;23.310;2023-01-26T11:15:15;93851.13;;;2.45;77.93
28911;BME280;16028;42.642;23.310;2023-01-26T11:17:44;93842.19;;;2.50;77.95
28911;BME280;16028;42.642;23.310;2023-01-26T11:20:23;93838.91;;;2.48;77.85
28911;BME280;16028;42.642;23.310;2023-01-26T11:22:53;93833.78;;;2.48;78.21
28911;BME280;16028;42.642;23.310;2023-01-26T11:25:26;93828.44;;;2.51;77.93
28911;BME280;16028;42.642;23.310;2023-01-26T11:28:04;93818.03;;;2.53;78.48
28911;BME280;16028;42.642;23.310;2023-01-26T11:30:43;93828.41;;;2.64;78.66
28911;BME280;16028;42.642;23.310;2023-01-26T11:33:16;93819.28;;;2.60;77.36
28911;BME280;16028;42.642;23.310;2023-01-26T11:35:49;93814.41;;;2.68;77.52
28911;BME280;16028;42.642;23.310;2023-01-26T11:38:24;93811.84;;;2.68;76.77
28911;BME280;16028;42.642;23.310;2023-01-26T11:40:54;93808.56;;;2.66;77.90
28911;BME280;16028;42.642;23.310;2023-01-26T11:46:13;93806.63;;;2.70;77.43
28911;BME280;16028;42.642;23.310;2023-01-26T11:48:44;93807.94;;;2.75;77.42
28911;BME280;16028;42.642;23.310;2023-01-26T11:51:16;93804.66;;;2.73;77.69
28911;BME280;16028;42.642;23.310;2023-01-26T11:53:54;93801.41;;;2.71;77.17
28911;BME280;16028;42.642;23.310;2023-01-26T11:56:27;93791.84;;;2.73;77.90
28911;BME280;16028;42.642;23.310;2023-01-26T11:58:56;93802.94;;;2.74;77.95
28911;BME280;16028;42.642;23.310;2023-01-26T12:01:24;93800.34;;;2.74;77.28
28911;BME280;16028;42.642;23.310;2023-01-26T12:03:53;93788.03;;;2.66;78.46
28911;BME280;16028;42.642;23.310;2023-01-26T12:06:33;93783.81;;;2.65;78.40
28911;BME280;16028;42.642;23.310;2023-01-26T12:09:03;93785.03;;;2.72;77.83
28911;BME280;16028;42.642;23.310;2023-01-26T12:11:36;93780.25;;;2.67;77.06
28911;BME280;16028;42.642;23.310;2023-01-26T12:14:05;93771.19;;;2.62;78.09
28911;BME280;16028;42.642;23.310;2023-01-26T12:16:35;93766.19;;;2.60;78.36
28911;BME280;16028;42.642;23.310;2023-01-26T12:19:09;93758.78;;;2.56;78.61
28911;BME280;16028;42.642;23.310;2023-01-26T12:21:37;93748.66;;;2.54;78.70
28911;BME280;16028;42.642;23.310;2023-01-26T12:24:10;93744.03;;;2.47;78.51
28911;BME280;16028;42.642;23.310;2023-01-26T12:26:40;93744.03;;;2.47;79.00
28911;BME280;16028;42.642;23.310;2023-01-26T12:29:11;93739.50;;;2.50;78.98
28911;BME280;16028;42.642;23.310;2023-01-26T12:31:43;93735.41;;;2.48;79.36
28911;BME280;16028;42.642;23.310;2023-01-26T12:34:11;93738.69;;;2.50;79.69
28911;BME280;16028;42.642;23.310;2023-01-26T12:36:40;93740.34;;;2.51;80.09
28911;BME280;16028;42.642;23.310;2023-01-26T12:39:13;93728.56;;;2.48;79.50
28911;BME280;16028;42.642;23.310;2023-01-26T12:41:45;93727.00;;;2.46;79.63
28911;BME280;16028;42.642;23.310;2023-01-26T12:44:24;93720.72;;;2.50;80.29
28911;BME280;16028;42.642;23.310;2023-01-26T12:46:57;93722.16;;;2.54;81.23
28911;BME280;16028;42.642;23.310;2023-01-26T12:49:25;93724.50;;;2.57;80.88
28911;BME280;16028;42.642;23.310;2023-01-26T12:51:54;93729.34;;;2.61;80.78
28911;BME280;16028;42.642;23.310;2023-01-26T12:54:30;93718.34;;;2.59;81.11
28911;BME280;16028;42.642;23.310;2023-01-26T12:56:59;93717.72;;;2.56;80.70
28911;BME280;16028;42.642;23.310;2023-01-26T12:59:30;93706.84;;;2.52;80.99
28911;BME280;16028;42.642;23.310;2023-01-26T13:01:57;93699.28;;;2.51;81.55
28911;BME280;16028;42.642;23.310;2023-01-26T13:04:24;93702.75;;;2.50;81.34
28911;BME280;16028;42.642;23.310;2023-01-26T13:06:59;93702.16;;;2.46;81.47
28911;BME280;16028;42.642;23.310;2023-01-26T13:09:27;93712.31;;;2.48;82.16
28911;BME280;16028;42.642;23.310;2023-01-26T13:11:54;93708.94;;;2.47;82.23
28911;BME280;16028;42.642;23.310;2023-01-26T13:14:23;93690.66;;;2.52;82.54
28911;BME280;16028;42.642;23.310;2023-01-26T13:16:50;93702.44;;;2.54;82.21
28911;BME280;16028;42.642;23.310;2023-01-26T13:21:58;93698.22;;;2.53;82.07
28911;BME280;16028;42.642;23.310;2023-01-26T13:24:45;93702.09;;;2.59;82.51
28911;BME280;16028;42.642;23.310;2023-01-26T13:29:54;93706.63;;;2.55;82.11